createdAt,value
2018-02-27T00:04:12.000Z,19.852
2018-02-27T00:14:12.000Z,19.884
2018-02-27T00:24:12.000Z,19.75
2018-02-27T00:34:12.000Z,19.859
2018-02-27T00:44:12.000Z,19.846
2018-02-27T00:54:12.000Z,19.888
2018-02-27T01:04:12.000Z,19.822
2018-02-27T01:14:12.000Z,19.875
2018-02-27T01:24:12.000Z,19.786
2018-02-27T01:34:12.000Z,19.894
2018-02-27T01:44:12.000Z,19.793
2018-02-27T01:54:12.000Z,19.781
2018-02-27T02:04:12.000Z,19.825
2018-02-27T02:14:12.000Z,19.801
2018-02-27T02:24:12.000Z,19.789
2018-02-27T02:34:12.000Z,19.842
2018-02-27T02:44:12.000Z,19.831
2018-02-27T02:54:12.000Z,19.927
2018-02-27T03:04:12.000Z,19.948
2018-02-27T03:14:12.000Z,19.991
2018-02-27T03:24:12.000Z,19.913
2018-02-27T03:34:12.000Z,19.945
2018-02-27T03:44:12.000Z,19.987
2018-02-27T03:54:12.000Z,20.248
2018-02-27T04:04:12.000Z,20.16
2018-02-27T04:14:12.000Z,20.104
2018-02-27T04:24:12.000Z,20.244
2018-02-27T04:34:12.000Z,20.45
2018-02-27T04:44:12.000Z,20.492
2018-02-27T04:54:12.000Z,20.545
2018-02-27T05:04:12.000Z,20.49
2018-02-27T05:14:12.000Z,20.423
2018-02-27T05:24:12.000Z,20.368
2018-02-27T05:34:12.000Z,20.138
2018-02-27T05:44:12.000Z,19.963
2018-02-27T05:54:12.000Z,19.789
2018-02-27T06:04:12.000Z,19.842
2018-02-27T06:14:12.000Z,19.47
2018-02-27T06:24:12.000Z,19.623
2018-02-27T06:34:12.000Z,18.793
2018-02-27T06:44:12.000Z,18.515
2018-02-27T06:54:12.000Z,18.414
2018-02-27T07:04:12.000Z,18.358
2018-02-27T07:14:12.000Z,18.237
2018-02-27T07:24:12.000Z,18.137
2018-02-27T07:34:12.000Z,18.388
2018-02-27T07:44:12.000Z,18.147
2018-02-27T07:54:12.000Z,18.06
2018-02-27T08:04:12.000Z,19.001
2018-02-27T08:14:13.000Z,18.4
2018-02-27T08:24:13.000Z,18.85
2018-02-27T08:34:13.000Z,19.104
2018-02-27T08:44:13.000Z,19.377
2018-02-27T08:54:13.000Z,19.248
2018-02-27T09:04:13.000Z,18.556
2018-02-27T09:14:13.000Z,18.456
2018-02-27T09:24:13.000Z,18.724
2018-02-27T09:34:13.000Z,18.497
2018-02-27T09:44:13.000Z,18.44
2018-02-27T09:54:13.000Z,17.911
2018-02-27T10:04:13.000Z,17.958
2018-02-27T10:14:13.000Z,18.172
2018-02-27T10:24:13.000Z,17.581
2018-02-27T10:34:13.000Z,18.034
2018-02-27T10:44:13.000Z,17.903
2018-02-27T10:54:13.000Z,17.652
2018-02-27T11:04:13.000Z,17.629
2018-02-27T11:14:13.000Z,18.311
2018-02-27T11:24:13.000Z,17.982
2018-02-27T11:34:13.000Z,18.362
2018-02-27T11:44:13.000Z,18.692
2018-02-27T11:54:13.000Z,18.398
2018-02-27T12:04:13.000Z,18.453
2018-02-27T12:14:13.000Z,18.181
2018-02-27T12:24:13.000Z,17.402
2018-02-27T12:34:13.000Z,17.5
2018-02-27T12:44:13.000Z,17.782
2018-02-27T12:54:13.000Z,18.156
2018-02-27T13:04:13.000Z,17.455
2018-02-27T13:24:13.000Z,17.54
2018-02-27T13:34:13.000Z,18.096
2018-02-27T13:44:13.000Z,18.553
2018-02-27T13:54:13.000Z,18.854
2018-02-27T14:04:13.000Z,19.268
2018-02-27T14:14:13.000Z,19.945
2018-02-27T14:24:13.000Z,20.389
2018-02-27T14:34:13.000Z,21.534
2018-02-27T14:44:13.000Z,22.21
2018-02-27T14:54:13.000Z,22.057
2018-02-27T15:04:13.000Z,22.07
2018-02-27T15:14:13.000Z,21.896
2018-02-27T15:24:13.000Z,21.831
2018-02-27T15:34:13.000Z,22.062
2018-02-27T15:44:13.000Z,20.639
2018-02-27T15:54:13.000Z,21.669
2018-02-27T16:04:15.000Z,21.483
2018-02-27T16:14:13.000Z,21.274
2018-02-27T16:24:13.000Z,21.109
2018-02-27T16:34:14.000Z,21.186
2018-02-27T16:44:14.000Z,21.087
2018-02-27T16:54:14.000Z,21.667
2018-02-27T17:04:14.000Z,21.119
2018-02-27T17:14:14.000Z,20.888
2018-02-27T17:24:14.000Z,21.654
2018-02-27T17:34:14.000Z,21.311
2018-02-27T17:44:14.000Z,22.78
2018-02-27T17:54:14.000Z,22.51
2018-02-27T18:04:14.000Z,22.634
2018-02-27T18:14:14.000Z,22.483
2018-02-27T18:24:14.000Z,22.45
2018-02-27T18:34:14.000Z,23.127
2018-02-27T18:44:14.000Z,23.123
2018-02-27T18:54:14.000Z,23.06
2018-02-27T19:04:14.000Z,22.435
2018-02-27T19:14:14.000Z,22.701
2018-02-27T19:24:14.000Z,23.775
2018-02-27T19:34:14.000Z,24.441
2018-02-27T19:44:14.000Z,24.281
2018-02-27T19:54:14.000Z,24.815
2018-02-27T20:04:14.000Z,24.698
2018-02-27T20:14:14.000Z,24.898
2018-02-27T20:24:14.000Z,25.643
2018-02-27T20:34:14.000Z,25.355
2018-02-27T20:44:14.000Z,25.097
2018-02-27T20:54:14.000Z,24.948
2018-02-27T21:04:15.000Z,24.097
2018-02-27T21:14:14.000Z,23.722
2018-02-27T21:24:14.000Z,23.708
2018-02-27T21:34:14.000Z,23.804
2018-02-27T21:44:14.000Z,23.31
2018-02-27T21:54:14.000Z,22.839
2018-02-27T22:04:14.000Z,23.113
2018-02-27T22:14:14.000Z,22.848
2018-02-27T22:24:14.000Z,22.649
2018-02-27T22:34:14.000Z,22.494
2018-02-27T22:44:14.000Z,22.326
2018-02-27T22:54:14.000Z,22.224
2018-02-27T23:04:14.000Z,22.189
2018-02-27T23:14:14.000Z,22.231
2018-02-27T23:24:14.000Z,22.304
2018-02-27T23:34:14.000Z,22.104
2018-02-27T23:44:14.000Z,22.09
2018-02-27T23:54:14.000Z,22.098
